sensor_id;sensor_type;location;lat;lon;timestamp;temperature;humidity
16441;DHT22;8330;-33.858;151.184;2022-07-01T00:01:00;13.40;99.90
16441;DHT22;8330;-33.858;151.184;2022-07-01T00:03:32;13.30;99.90
16441;DHT22;8330;-33.858;151.184;2022-07-01T00:06:04;13.40;99.90
16441;DHT22;8330;-33.858;151.184;2022-07-01T00:08:37;13.40;99.90
16441;DHT22;8330;-33.858;151.184;2022-07-01T00:11:08;13.40;99.90
16441;DHT22;8330;-33.858;151.184;2022-07-01T00:13:39;13.40;99.90
16441;DHT22;8330;-33.858;151.184;2022-07-01T00:16:10;13.40;99.90
16441;DHT22;8330;-33.858;151.184;2022-07-01T00:18:45;13.40;99.90
16441;DHT22;8330;-33.858;151.184;2022-07-01T00:21:16;13.40;99.90
16441;DHT22;8330;-33.858;151.184;2022-07-01T00:23:46;13.30;99.90
16441;DHT22;8330;-33.858;151.184;2022-07-01T00:26:17;13.40;99.90
16441;DHT22;8330;-33.858;151.184;2022-07-01T00:28:48;13.30;99.90
16441;DHT22;8330;-33.858;151.184;2022-07-01T00:31:18;13.30;99.90
16441;DHT22;8330;-33.858;151.184;2022-07-01T00:33:51;13.30;99.90
16441;DHT22;8330;-33.858;151.184;2022-07-01T00:36:22;13.30;99.90
16441;DHT22;8330;-33.858;151.184;2022-07-01T00:38:52;13.40;99.90
16441;DHT22;8330;-33.858;151.184;2022-07-01T00:41:23;13.40;99.90
16441;DHT22;8330;-33.858;151.184;2022-07-01T00:43:54;13.40;99.90
16441;DHT22;8330;-33.858;151.184;2022-07-01T00:46:25;13.50;99.90
16441;DHT22;8330;-33.858;151.184;2022-07-01T00:48:59;13.50;99.90
16441;DHT22;8330;-33.858;151.184;2022-07-01T00:51:30;13.50;99.90
16441;DHT22;8330;-33.858;151.184;2022-07-01T00:54:01;13.60;99.90
16441;DHT22;8330;-33.858;151.184;2022-07-01T00:56:33;13.60;99.90
16441;DHT22;8330;-33.858;151.184;2022-07-01T00:59:04;13.60;99.90
16441;DHT22;8330;-33.858;151.184;2022-07-01T01:01:34;13.60;99.90
16441;DHT22;8330;-33.858;151.184;2022-07-01T01:04:07;13.60;99.90
16441;DHT22;8330;-33.858;151.184;2022-07-01T01:06:38;13.60;99.90
16441;DHT22;8330;-33.858;151.184;2022-07-01T01:09:08;13.60;99.90
16441;DHT22;8330;-33.858;151.184;2022-07-01T01:11:39;13.60;99.90
16441;DHT22;8330;-33.858;151.184;2022-07-01T01:14:12;13.60;99.90
16441;DHT22;8330;-33.858;151.184;2022-07-01T01:16:43;13.60;99.90
16441;DHT22;8330;-33.858;151.184;2022-07-01T01:19:15;13.70;99.90
16441;DHT22;8330;-33.858;151.184;2022-07-01T01:21:48;13.70;99.90
16441;DHT22;8330;-33.858;151.184;2022-07-01T01:24:18;13.70;99.90
16441;DHT22;8330;-33.858;151.184;2022-07-01T01:26:50;13.80;99.90
16441;DHT22;8330;-33.858;151.184;2022-07-01T01:29:20;13.70;99.90
16441;DHT22;8330;-33.858;151.184;2022-07-01T01:31:51;13.70;99.90
16441;DHT22;8330;-33.858;151.184;2022-07-01T01:34:22;13.70;99.90
16441;DHT22;8330;-33.858;151.184;2022-07-01T01:36:54;13.70;99.90
16441;DHT22;8330;-33.858;151.184;2022-07-01T01:39:25;13.70;99.90
16441;DHT22;8330;-33.858;151.184;2022-07-01T01:41:56;13.80;99.90
16441;DHT22;8330;-33.858;151.184;2022-07-01T01:44:28;13.80;99.90
16441;DHT22;8330;-33.858;151.184;2022-07-01T01:46:58;13.80;99.90
16441;DHT22;8330;-33.858;151.184;2022-07-01T01:49:29;13.70;99.90
16441;DHT22;8330;-33.858;151.184;2022-07-01T01:52:02;13.70;99.90
16441;DHT22;8330;-33.858;151.184;2022-07-01T01:54:34;13.60;99.90
16441;DHT22;8330;-33.858;151.184;2022-07-01T01:57:05;13.60;99.90
16441;DHT22;8330;-33.858;151.184;2022-07-01T01:59:36;13.70;99.90
16441;DHT22;8330;-33.858;151.184;2022-07-01T02:02:06;13.60;99.90
16441;DHT22;8330;-33.858;151.184;2022-07-01T02:04:37;13.60;99.90
16441;DHT22;8330;-33.858;151.184;2022-07-01T02:07:10;13.60;99.90
16441;DHT22;8330;-33.858;151.184;2022-07-01T02:09:41;13.60;99.90
16441;DHT22;8330;-33.858;151.184;2022-07-01T02:12:12;13.60;99.90
16441;DHT22;8330;-33.858;151.184;2022-07-01T02:14:42;13.50;99.90
16441;DHT22;8330;-33.858;151.184;2022-07-01T02:17:13;13.50;99.90
16441;DHT22;8330;-33.858;151.184;2022-07-01T02:19:44;13.50;99.90
16441;DHT22;8330;-33.858;151.184;2022-07-01T02:22:16;13.50;99.90
16441;DHT22;8330;-33.858;151.184;2022-07-01T02:24:47;13.50;99.90
16441;DHT22;8330;-33.858;151.184;2022-07-01T02:27:18;13.60;99.90
16441;DHT22;8330;-33.858;151.184;2022-07-01T02:29:48;13.50;99.90
16441;DHT22;8330;-33.858;151.184;2022-07-01T02:32:19;13.50;99.90
16441;DHT22;8330;-33.858;151.184;2022-07-01T02:34:50;13.50;99.90
16441;DHT22;8330;-33.858;151.184;2022-07-01T02:37:22;13.50;99.90
16441;DHT22;8330;-33.858;151.184;2022-07-01T02:39:53;13.40;99.90
16441;DHT22;8330;-33.858;151.184;2022-07-01T02:42:24;13.40;99.90
16441;DHT22;8330;-33.858;151.184;2022-07-01T02:44:56;13.40;99.90
16441;DHT22;8330;-33.858;151.184;2022-07-01T02:47:32;13.40;99.90
16441;DHT22;8330;-33.858;151.184;2022-07-01T02:50:03;13.40;99.90
16441;DHT22;8330;-33.858;151.184;2022-07-01T02:52:38;13.40;99.90
16441;DHT22;8330;-33.858;151.184;2022-07-01T02:55:10;13.40;99.90
16441;DHT22;8330;-33.858;151.184;2022-07-01T02:57:41;13.40;99.90
16441;DHT22;8330;-33.858;151.184;2022-07-01T03:00:13;13.40;99.90
16441;DHT22;8330;-33.858;151.184;2022-07-01T03:02:44;13.30;99.90
16441;DHT22;8330;-33.858;151.184;2022-07-01T03:05:15;13.30;99.90
16441;DHT22;8330;-33.858;151.184;2022-07-01T03:07:48;13.30;99.90
16441;DHT22;8330;-33.858;151.184;2022-07-01T03:10:18;13.30;99.90
16441;DHT22;8330;-33.858;151.184;2022-07-01T03:12:49;13.30;99.90
16441;DHT22;8330;-33.858;151.184;2022-07-01T03:15:20;13.20;99.90
16441;DHT22;8330;-33.858;151.184;2022-07-01T03:17:50;13.20;99.90
16441;DHT22;8330;-33.858;151.184;2022-07-01T03:20:21;13.20;99.90
16441;DHT22;8330;-33.858;151.184;2022-07-01T03:22:53;13.20;99.90
16441;DHT22;8330;-33.858;151.184;2022-07-01T03:25:27;13.20;99.90
16441;DHT22;8330;-33.858;151.184;2022-07-01T03:27:57;13.20;99.90
16441;DHT22;8330;-33.858;151.184;2022-07-01T03:30:31;13.30;99.90
16441;DHT22;8330;-33.858;151.184;2022-07-01T03:33:02;13.30;99.90
16441;DHT22;8330;-33.858;151.184;2022-07-01T03:35:32;13.30;99.90
16441;DHT22;8330;-33.858;151.184;2022-07-01T03:38:13;13.30;99.90
16441;DHT22;8330;-33.858;151.184;2022-07-01T03:40:44;13.30;99.90
16441;DHT22;8330;-33.858;151.184;2022-07-01T03:43:15;13.30;99.90
16441;DHT22;8330;-33.858;151.184;2022-07-01T03:45:46;13.30;99.90
16441;DHT22;8330;-33.858;151.184;2022-07-01T03:48:16;13.20;99.90
16441;DHT22;8330;-33.858;151.184;2022-07-01T03:50:47;13.20;99.90
16441;DHT22;8330;-33.858;151.184;2022-07-01T03:53:20;13.20;99.90
16441;DHT22;8330;-33.858;151.184;2022-07-01T03:56:07;13.20;99.90
16441;DHT22;8330;-33.858;151.184;2022-07-01T03:58:37;13.20;99.90
16441;DHT22;8330;-33.858;151.184;2022-07-01T04:01:08;13.30;99.90
16441;DHT22;8330;-33.858;151.184;2022-07-01T04:03:39;13.30;99.90
16441;DHT22;8330;-33.858;151.184;2022-07-01T04:06:10;13.30;99.90
16441;DHT22;8330;-33.858;151.184;2022-07-01T04:08:42;13.30;99.90
16441;DHT22;8330;-33.858;151.184;2022-07-01T04:11:13;13.30;99.90
16441;DHT22;8330;-33.858;151.184;2022-07-01T04:13:44;13.30;99.90
16441;DHT22;8330;-33.858;151.184;2022-07-01T04:16:18;13.30;99.90
16441;DHT22;8330;-33.858;151.184;2022-07-01T04:18:49;13.30;99.90
16441;DHT22;8330;-33.858;151.184;2022-07-01T04:21:20;13.30;99.90
16441;DHT22;8330;-33.858;151.184;2022-07-01T04:24:09;13.30;99.90
16441;DHT22;8330;-33.858;151.184;2022-07-01T04:26:41;13.30;99.90
16441;DHT22;8330;-33.858;151.184;2022-07-01T04:29:12;13.30;99.90
16441;DHT22;8330;-33.858;151.184;2022-07-01T04:31:43;13.30;99.90
16441;DHT22;8330;-33.858;151.184;2022-07-01T04:34:13;13.30;99.90
16441;DHT22;8330;-33.858;151.184;2022-07-01T04:36:44;13.40;99.90
16441;DHT22;8330;-33.858;151.184;2022-07-01T04:39:17;13.40;99.90
16441;DHT22;8330;-33.858;151.184;2022-07-01T04:41:47;13.40;99.90
16441;DHT22;8330;-33.858;151.184;2022-07-01T04:44:31;13.40;99.90
16441;DHT22;8330;-33.858;151.184;2022-07-01T04:47:02;13.40;99.90
16441;DHT22;8330;-33.858;151.184;2022-07-01T04:49:33;13.30;99.90
16441;DHT22;8330;-33.858;151.184;2022-07-01T04:52:07;13.30;99.90
16441;DHT22;8330;-33.858;151.184;2022-07-01T04:54:40;13.30;99.90
16441;DHT22;8330;-33.858;151.184;2022-07-01T04:57:11;13.30;99.90
16441;DHT22;8330;-33.858;151.184;2022-07-01T04:59:41;13.30;99.90
16441;DHT22;8330;-33.858;151.184;2022-07-01T05:02:16;13.30;99.90
16441;DHT22;8330;-33.858;151.184;2022-07-01T05:04:47;13.30;99.90
16441;DHT22;8330;-33.858;151.184;2022-07-01T05:07:21;13.30;99.90
16441;DHT22;8330;-33.858;151.184;2022-07-01T05:10:00;13.30;99.90
16441;DHT22;8330;-33.858;151.184;2022-07-01T05:12:37;13.20;99.90
16441;DHT22;8330;-33.858;151.184;2022-07-01T05:15:29;13.20;99.90
16441;DHT22;8330;-33.858;151.184;2022-07-01T05:18:14;13.30;99.90
16441;DHT22;8330;-33.858;151.184;2022-07-01T05:21:01;13.30;99.90
16441;DHT22;8330;-33.858;151.184;2022-07-01T05:23:50;13.30;99.90
16441;DHT22;8330;-33.858;151.184;2022-07-01T05:26:26;13.30;99.90
16441;DHT22;8330;-33.858;151.184;2022-07-01T05:29:08;13.30;99.90
16441;DHT22;8330;-33.858;151.184;2022-07-01T05:31:38;13.30;99.90
16441;DHT22;8330;-33.858;151.184;2022-07-01T05:34:09;13.30;99.90
16441;DHT22;8330;-33.858;151.184;2022-07-01T05:36:40;13.30;99.90
16441;DHT22;8330;-33.858;151.184;2022-07-01T05:39:13;13.30;99.90
16441;DHT22;8330;-33.858;151.184;2022-07-01T05:41:45;13.30;99.90
16441;DHT22;8330;-33.858;151.184;2022-07-01T05:44:16;13.30;99.90
16441;DHT22;8330;-33.858;151.184;2022-07-01T05:46:47;13.30;99.90
16441;DHT22;8330;-33.858;151.184;2022-07-01T05:49:18;13.40;99.90
16441;DHT22;8330;-33.858;151.184;2022-07-01T05:51:48;13.40;99.90
16441;DHT22;8330;-33.858;151.184;2022-07-01T05:54:19;13.40;99.90
16441;DHT22;8330;-33.858;151.184;2022-07-01T05:56:51;13.40;99.90
16441;DHT22;8330;-33.858;151.184;2022-07-01T05:59:22;13.30;99.90
16441;DHT22;8330;-33.858;151.184;2022-07-01T06:01:53;13.30;99.90
16441;DHT22;8330;-33.858;151.184;2022-07-01T06:04:24;13.30;99.90
16441;DHT22;8330;-33.858;151.184;2022-07-01T06:06:54;13.40;99.90
16441;DHT22;8330;-33.858;151.184;2022-07-01T06:09:25;13.30;99.90
16441;DHT22;8330;-33.858;151.184;2022-07-01T06:11:58;13.40;99.90
16441;DHT22;8330;-33.858;151.184;2022-07-01T06:14:28;13.20;99.90
16441;DHT22;8330;-33.858;151.184;2022-07-01T06:16:59;13.20;99.90
16441;DHT22;8330;-33.858;151.184;2022-07-01T06:19:30;13.30;99.90
16441;DHT22;8330;-33.858;151.184;2022-07-01T06:22:01;13.30;99.90
16441;DHT22;8330;-33.858;151.184;2022-07-01T06:24:32;13.20;99.90
16441;DHT22;8330;-33.858;151.184;2022-07-01T06:27:05;13.20;99.90
16441;DHT22;8330;-33.858;151.184;2022-07-01T06:29:36;13.30;99.90
16441;DHT22;8330;-33.858;151.184;2022-07-01T06:32:07;13.20;99.90
16441;DHT22;8330;-33.858;151.184;2022-07-01T06:34:38;13.20;99.90
16441;DHT22;8330;-33.858;151.184;2022-07-01T06:37:09;13.20;99.90
16441;DHT22;8330;-33.858;151.184;2022-07-01T06:39:39;13.20;99.90
16441;DHT22;8330;-33.858;151.184;2022-07-01T06:42:12;13.30;99.90
16441;DHT22;8330;-33.858;151.184;2022-07-01T06:44:46;13.30;99.90
16441;DHT22;8330;-33.858;151.184;2022-07-01T06:47:16;13.30;99.90
16441;DHT22;8330;-33.858;151.184;2022-07-01T06:49:47;13.30;99.90
16441;DHT22;8330;-33.858;151.184;2022-07-01T06:52:18;13.20;99.90
16441;DHT22;8330;-33.858;151.184;2022-07-01T06:54:48;13.20;99.90
16441;DHT22;8330;-33.858;151.184;2022-07-01T06:57:21;13.20;99.90
16441;DHT22;8330;-33.858;151.184;2022-07-01T06:59:51;13.20;99.90
16441;DHT22;8330;-33.858;151.184;2022-07-01T07:02:22;13.20;99.90
16441;DHT22;8330;-33.858;151.184;2022-07-01T07:04:53;13.20;99.90
16441;DHT22;8330;-33.858;151.184;2022-07-01T07:07:25;13.20;99.90
16441;DHT22;8330;-33.858;151.184;2022-07-01T07:09:56;13.20;99.90
16441;DHT22;8330;-33.858;151.184;2022-07-01T07:12:29;13.20;99.90
16441;DHT22;8330;-33.858;151.184;2022-07-01T07:14:59;13.20;99.90
16441;DHT22;8330;-33.858;151.184;2022-07-01T07:17:30;13.20;99.90
16441;DHT22;8330;-33.858;151.184;2022-07-01T07:20:01;13.20;99.90
16441;DHT22;8330;-33.858;151.184;2022-07-01T07:22:31;13.10;99.90
16441;DHT22;8330;-33.858;151.184;2022-07-01T07:25:02;13.20;99.90
16441;DHT22;8330;-33.858;151.184;2022-07-01T07:27:35;13.20;99.90
16441;DHT22;8330;-33.858;151.184;2022-07-01T07:30:06;13.20;99.90
16441;DHT22;8330;-33.858;151.184;2022-07-01T07:32:37;13.20;99.90
16441;DHT22;8330;-33.858;151.184;2022-07-01T07:35:08;13.20;99.90
16441;DHT22;8330;-33.858;151.184;2022-07-01T07:37:40;13.20;99.90
16441;DHT22;8330;-33.858;151.184;2022-07-01T07:40:11;13.20;99.90
16441;DHT22;8330;-33.858;151.184;2022-07-01T07:42:48;13.10;99.90
16441;DHT22;8330;-33.858;151.184;2022-07-01T07:45:19;13.10;99.90
16441;DHT22;8330;-33.858;151.184;2022-07-01T07:47:50;13.20;99.90
16441;DHT22;8330;-33.858;151.184;2022-07-01T07:50:22;13.10;99.90
16441;DHT22;8330;-33.858;151.184;2022-07-01T07:52:53;13.10;99.90
16441;DHT22;8330;-33.858;151.184;2022-07-01T07:55:24;13.10;99.90
16441;DHT22;8330;-33.858;151.184;2022-07-01T07:57:57;13.10;99.90
16441;DHT22;8330;-33.858;151.184;2022-07-01T08:00:28;13.10;99.90
16441;DHT22;8330;-33.858;151.184;2022-07-01T08:02:59;13.10;99.90
16441;DHT22;8330;-33.858;151.184;2022-07-01T08:05:30;13.10;99.90
16441;DHT22;8330;-33.858;151.184;2022-07-01T08:08:00;13.10;99.90
16441;DHT22;8330;-33.858;151.184;2022-07-01T08:10:31;13.00;99.90
16441;DHT22;8330;-33.858;151.184;2022-07-01T08:13:03;13.00;99.90
16441;DHT22;8330;-33.858;151.184;2022-07-01T08:15:34;13.00;99.90
16441;DHT22;8330;-33.858;151.184;2022-07-01T08:18:05;13.00;99.90
16441;DHT22;8330;-33.858;151.184;2022-07-01T08:20:36;13.00;99.90
16441;DHT22;8330;-33.858;151.184;2022-07-01T08:23:06;13.00;99.90
16441;DHT22;8330;-33.858;151.184;2022-07-01T08:25:37;13.00;99.90
16441;DHT22;8330;-33.858;151.184;2022-07-01T08:28:10;13.00;99.90
16441;DHT22;8330;-33.858;151.184;2022-07-01T08:30:41;13.10;99.90
16441;DHT22;8330;-33.858;151.184;2022-07-01T08:33:12;13.10;99.90
16441;DHT22;8330;-33.858;151.184;2022-07-01T08:35:43;13.10;99.90
16441;DHT22;8330;-33.858;151.184;2022-07-01T08:38:13;13.10;99.90
16441;DHT22;8330;-33.858;151.184;2022-07-01T08:40:44;13.10;99.90
16441;DHT22;8330;-33.858;151.184;2022-07-01T08:43:16;13.10;99.90
16441;DHT22;8330;-33.858;151.184;2022-07-01T08:45:47;13.20;99.90
16441;DHT22;8330;-33.858;151.184;2022-07-01T08:48:20;13.20;99.90
16441;DHT22;8330;-33.858;151.184;2022-07-01T08:50:51;13.20;99.90
16441;DHT22;8330;-33.858;151.184;2022-07-01T08:53:22;13.20;99.90
16441;DHT22;8330;-33.858;151.184;2022-07-01T08:55:53;13.20;99.90
16441;DHT22;8330;-33.858;151.184;2022-07-01T08:58:41;13.20;99.90
16441;DHT22;8330;-33.858;151.184;2022-07-01T09:01:17;13.20;99.90
16441;DHT22;8330;-33.858;151.184;2022-07-01T09:03:48;13.20;99.90
16441;DHT22;8330;-33.858;151.184;2022-07-01T09:06:20;13.20;99.90
16441;DHT22;8330;-33.858;151.184;2022-07-01T09:08:51;13.10;99.90
16441;DHT22;8330;-33.858;151.184;2022-07-01T09:11:23;13.10;99.90
16441;DHT22;8330;-33.858;151.184;2022-07-01T09:14:10;13.10;99.90
16441;DHT22;8330;-33.858;151.184;2022-07-01T09:16:45;13.10;99.90
16441;DHT22;8330;-33.858;151.184;2022-07-01T09:19:18;13.20;99.90
16441;DHT22;8330;-33.858;151.184;2022-07-01T09:21:50;13.20;99.90
16441;DHT22;8330;-33.858;151.184;2022-07-01T09:24:26;13.20;99.90
16441;DHT22;8330;-33.858;151.184;2022-07-01T09:26:59;13.20;99.90
16441;DHT22;8330;-33.858;151.184;2022-07-01T09:29:33;13.20;99.90
16441;DHT22;8330;-33.858;151.184;2022-07-01T09:32:05;13.20;99.90
16441;DHT22;8330;-33.858;151.184;2022-07-01T09:34:40;13.20;99.90
16441;DHT22;8330;-33.858;151.184;2022-07-01T09:37:14;13.20;99.90
16441;DHT22;8330;-33.858;151.184;2022-07-01T09:39:45;13.20;99.90
16441;DHT22;8330;-33.858;151.184;2022-07-01T09:42:17;13.20;99.90
16441;DHT22;8330;-33.858;151.184;2022-07-01T09:44:58;13.20;99.90
16441;DHT22;8330;-33.858;151.184;2022-07-01T09:47:30;13.20;99.90
16441;DHT22;8330;-33.858;151.184;2022-07-01T09:50:02;13.20;99.90
16441;DHT22;8330;-33.858;151.184;2022-07-01T09:52:33;13.20;99.90
16441;DHT22;8330;-33.858;151.184;2022-07-01T09:55:04;13.20;99.90
16441;DHT22;8330;-33.858;151.184;2022-07-01T09:57:35;13.20;99.90
16441;DHT22;8330;-33.858;151.184;2022-07-01T10:00:10;13.20;99.90
16441;DHT22;8330;-33.858;151.184;2022-07-01T10:02:41;13.20;99.90
16441;DHT22;8330;-33.858;151.184;2022-07-01T10:05:15;13.20;99.90
16441;DHT22;8330;-33.858;151.184;2022-07-01T10:07:55;13.30;99.90
16441;DHT22;8330;-33.858;151.184;2022-07-01T10:10:42;13.30;99.90
16441;DHT22;8330;-33.858;151.184;2022-07-01T10:13:16;13.30;99.90
16441;DHT22;8330;-33.858;151.184;2022-07-01T10:15:50;13.30;99.90
16441;DHT22;8330;-33.858;151.184;2022-07-01T10:18:21;13.30;99.90
16441;DHT22;8330;-33.858;151.184;2022-07-01T10:20:53;13.30;99.90
16441;DHT22;8330;-33.858;151.184;2022-07-01T10:23:28;13.20;99.90
16441;DHT22;8330;-33.858;151.184;2022-07-01T10:26:03;13.30;99.90
16441;DHT22;8330;-33.858;151.184;2022-07-01T10:28:44;13.20;99.90
16441;DHT22;8330;-33.858;151.184;2022-07-01T10:31:18;13.20;99.90
16441;DHT22;8330;-33.858;151.184;2022-07-01T10:33:50;13.20;99.90
16441;DHT22;8330;-33.858;151.184;2022-07-01T10:36:27;13.20;99.90
16441;DHT22;8330;-33.858;151.184;2022-07-01T10:39:18;13.20;99.90
16441;DHT22;8330;-33.858;151.184;2022-07-01T10:42:01;13.20;99.90
16441;DHT22;8330;-33.858;151.184;2022-07-01T10:44:33;13.30;99.90
16441;DHT22;8330;-33.858;151.184;2022-07-01T10:47:07;13.30;99.90
16441;DHT22;8330;-33.858;151.184;2022-07-01T10:49:56;13.30;99.90
16441;DHT22;8330;-33.858;151.184;2022-07-01T10:52:27;13.30;99.90
16441;DHT22;8330;-33.858;151.184;2022-07-01T10:54:58;13.20;99.90
16441;DHT22;8330;-33.858;151.184;2022-07-01T10:57:32;13.20;99.90
16441;DHT22;8330;-33.858;151.184;2022-07-01T11:00:30;13.20;99.90
16441;DHT22;8330;-33.858;151.184;2022-07-01T11:03:14;13.30;99.90
16441;DHT22;8330;-33.858;151.184;2022-07-01T11:05:47;13.30;99.90
16441;DHT22;8330;-33.858;151.184;2022-07-01T11:08:18;13.30;99.90
16441;DHT22;8330;-33.858;151.184;2022-07-01T11:10:53;13.40;99.90
16441;DHT22;8330;-33.858;151.184;2022-07-01T11:13:26;13.40;99.90
16441;DHT22;8330;-33.858;151.184;2022-07-01T11:15:57;13.40;99.90
16441;DHT22;8330;-33.858;151.184;2022-07-01T11:18:31;13.40;99.90
16441;DHT22;8330;-33.858;151.184;2022-07-01T11:21:06;13.40;99.90
16441;DHT22;8330;-33.858;151.184;2022-07-01T11:23:37;13.40;99.90
16441;DHT22;8330;-33.858;151.184;2022-07-01T11:26:07;13.30;99.90
16441;DHT22;8330;-33.858;151.184;2022-07-01T11:28:49;13.30;99.90
16441;DHT22;8330;-33.858;151.184;2022-07-01T11:31:31;13.30;99.90
16441;DHT22;8330;-33.858;151.184;2022-07-01T11:34:04;13.30;99.90
16441;DHT22;8330;-33.858;151.184;2022-07-01T11:36:35;13.40;99.90
16441;DHT22;8330;-33.858;151.184;2022-07-01T11:39:28;13.40;99.90
16441;DHT22;8330;-33.858;151.184;2022-07-01T11:42:02;13.30;99.90
16441;DHT22;8330;-33.858;151.184;2022-07-01T11:44:35;13.30;99.90
16441;DHT22;8330;-33.858;151.184;2022-07-01T11:47:07;13.30;99.90
16441;DHT22;8330;-33.858;151.184;2022-07-01T11:49:47;13.30;99.90
16441;DHT22;8330;-33.858;151.184;2022-07-01T11:52:19;13.40;99.90
16441;DHT22;8330;-33.858;151.184;2022-07-01T11:54:51;13.40;99.90
16441;DHT22;8330;-33.858;151.184;2022-07-01T11:57:23;13.40;99.90
16441;DHT22;8330;-33.858;151.184;2022-07-01T11:59:56;13.40;99.90
16441;DHT22;8330;-33.858;151.184;2022-07-01T12:02:27;13.30;99.90
16441;DHT22;8330;-33.858;151.184;2022-07-01T12:05:00;13.30;99.90
16441;DHT22;8330;-33.858;151.184;2022-07-01T12:07:34;13.30;99.90
16441;DHT22;8330;-33.858;151.184;2022-07-01T12:10:06;13.30;99.90
16441;DHT22;8330;-33.858;151.184;2022-07-01T12:12:37;13.30;99.90
16441;DHT22;8330;-33.858;151.184;2022-07-01T12:15:14;13.30;99.90
16441;DHT22;8330;-33.858;151.184;2022-07-01T12:17:44;13.30;99.90
16441;DHT22;8330;-33.858;151.184;2022-07-01T12:20:31;13.30;99.90
16441;DHT22;8330;-33.858;151.184;2022-07-01T12:23:15;13.30;99.90
16441;DHT22;8330;-33.858;151.184;2022-07-01T12:25:49;13.20;99.90
16441;DHT22;8330;-33.858;151.184;2022-07-01T12:28:29;13.20;99.90
16441;DHT22;8330;-33.858;151.184;2022-07-01T12:31:04;13.20;99.90
16441;DHT22;8330;-33.858;151.184;2022-07-01T12:33:37;13.20;99.90
16441;DHT22;8330;-33.858;151.184;2022-07-01T12:36:10;13.30;99.90
16441;DHT22;8330;-33.858;151.184;2022-07-01T12:38:42;13.30;99.90
16441;DHT22;8330;-33.858;151.184;2022-07-01T12:41:30;13.30;99.90
16441;DHT22;8330;-33.858;151.184;2022-07-01T12:44:06;13.30;99.90
16441;DHT22;8330;-33.858;151.184;2022-07-01T12:46:51;13.30;99.90
16441;DHT22;8330;-33.858;151.184;2022-07-01T12:49:24;13.30;99.90
16441;DHT22;8330;-33.858;151.184;2022-07-01T12:51:57;13.30;99.90
16441;DHT22;8330;-33.858;151.184;2022-07-01T12:54:31;13.30;99.90
16441;DHT22;8330;-33.858;151.184;2022-07-01T12:57:02;13.20;99.90
16441;DHT22;8330;-33.858;151.184;2022-07-01T12:59:33;13.20;99.90
16441;DHT22;8330;-33.858;151.184;2022-07-01T13:02:04;13.20;99.90
16441;DHT22;8330;-33.858;151.184;2022-07-01T13:04:35;13.30;99.90
16441;DHT22;8330;-33.858;151.184;2022-07-01T13:07:07;13.20;99.90
16441;DHT22;8330;-33.858;151.184;2022-07-01T13:09:39;13.30;99.90
16441;DHT22;8330;-33.858;151.184;2022-07-01T13:12:10;13.30;99.90
16441;DHT22;8330;-33.858;151.184;2022-07-01T13:14:43;13.30;99.90
16441;DHT22;8330;-33.858;151.184;2022-07-01T13:17:15;13.30;99.90
16441;DHT22;8330;-33.858;151.184;2022-07-01T13:19:46;13.20;99.90
16441;DHT22;8330;-33.858;151.184;2022-07-01T13:22:18;13.20;99.90
16441;DHT22;8330;-33.858;151.184;2022-07-01T13:24:49;13.20;99.90
16441;DHT22;8330;-33.858;151.184;2022-07-01T13:27:20;13.20;99.90
16441;DHT22;8330;-33.858;151.184;2022-07-01T13:29:51;13.30;99.90
16441;DHT22;8330;-33.858;151.184;2022-07-01T13:32:24;13.20;99.90
16441;DHT22;8330;-33.858;151.184;2022-07-01T13:34:55;13.20;99.90
16441;DHT22;8330;-33.858;151.184;2022-07-01T13:37:28;13.20;99.90
16441;DHT22;8330;-33.858;151.184;2022-07-01T13:39:59;13.20;99.90
16441;DHT22;8330;-33.858;151.184;2022-07-01T13:42:30;13.20;99.90
16441;DHT22;8330;-33.858;151.184;2022-07-01T13:45:00;13.20;99.90
16441;DHT22;8330;-33.858;151.184;2022-07-01T13:47:31;13.20;99.90
16441;DHT22;8330;-33.858;151.184;2022-07-01T13:50:02;13.10;99.90
16441;DHT22;8330;-33.858;151.184;2022-07-01T13:52:35;13.10;99.90
16441;DHT22;8330;-33.858;151.184;2022-07-01T13:55:07;13.10;99.90
16441;DHT22;8330;-33.858;151.184;2022-07-01T13:57:37;13.10;99.90
16441;DHT22;8330;-33.858;151.184;2022-07-01T14:00:09;13.10;99.90
16441;DHT22;8330;-33.858;151.184;2022-07-01T14:02:40;13.10;99.90
16441;DHT22;8330;-33.858;151.184;2022-07-01T14:05:11;13.10;99.90
16441;DHT22;8330;-33.858;151.184;2022-07-01T14:07:43;13.10;99.90
16441;DHT22;8330;-33.858;151.184;2022-07-01T14:10:14;13.10;99.90
16441;DHT22;8330;-33.858;151.184;2022-07-01T14:12:45;13.10;99.90
16441;DHT22;8330;-33.858;151.184;2022-07-01T14:15:16;13.10;99.90
16441;DHT22;8330;-33.858;151.184;2022-07-01T14:17:46;13.10;99.90
16441;DHT22;8330;-33.858;151.184;2022-07-01T14:20:17;13.10;99.90
16441;DHT22;8330;-33.858;151.184;2022-07-01T14:22:50;13.10;99.90
16441;DHT22;8330;-33.858;151.184;2022-07-01T14:25:21;13.10;99.90
16441;DHT22;8330;-33.858;151.184;2022-07-01T14:27:52;13.10;99.90
16441;DHT22;8330;-33.858;151.184;2022-07-01T14:30:22;13.10;99.90
16441;DHT22;8330;-33.858;151.184;2022-07-01T14:32:53;13.10;99.90
16441;DHT22;8330;-33.858;151.184;2022-07-01T14:35:24;13.10;99.90
16441;DHT22;8330;-33.858;151.184;2022-07-01T14:37:56;13.00;99.90
16441;DHT22;8330;-33.858;151.184;2022-07-01T14:40:28;13.00;99.90
16441;DHT22;8330;-33.858;151.184;2022-07-01T14:43:01;13.10;99.90
16441;DHT22;8330;-33.858;151.184;2022-07-01T14:45:31;13.00;99.90
16441;DHT22;8330;-33.858;151.184;2022-07-01T14:48:02;13.10;99.90
16441;DHT22;8330;-33.858;151.184;2022-07-01T14:50:33;13.10;99.90
16441;DHT22;8330;-33.858;151.184;2022-07-01T14:53:05;13.10;99.90
16441;DHT22;8330;-33.858;151.184;2022-07-01T14:55:37;13.10;99.90
16441;DHT22;8330;-33.858;151.184;2022-07-01T14:58:07;13.10;99.90
16441;DHT22;8330;-33.858;151.184;2022-07-01T15:00:38;13.10;99.90
16441;DHT22;8330;-33.858;151.184;2022-07-01T15:03:09;13.10;99.90
16441;DHT22;8330;-33.858;151.184;2022-07-01T15:05:41;13.10;99.90
16441;DHT22;8330;-33.858;151.184;2022-07-01T15:08:13;13.10;99.90
16441;DHT22;8330;-33.858;151.184;2022-07-01T15:10:44;13.10;99.90
16441;DHT22;8330;-33.858;151.184;2022-07-01T15:13:16;13.00;99.90
16441;DHT22;8330;-33.858;151.184;2022-07-01T15:15:48;13.00;99.90
16441;DHT22;8330;-33.858;151.184;2022-07-01T15:18:19;13.10;99.90
16441;DHT22;8330;-33.858;151.184;2022-07-01T15:20:50;13.10;99.90
16441;DHT22;8330;-33.858;151.184;2022-07-01T15:23:22;13.10;99.90
16441;DHT22;8330;-33.858;151.184;2022-07-01T15:25:53;13.10;99.90
16441;DHT22;8330;-33.858;151.184;2022-07-01T15:28:24;13.10;99.90
16441;DHT22;8330;-33.858;151.184;2022-07-01T15:30:54;13.10;99.90
16441;DHT22;8330;-33.858;151.184;2022-07-01T15:33:25;13.10;99.90
16441;DHT22;8330;-33.858;151.184;2022-07-01T15:35:56;13.00;99.90